sensor_id;sensor_type;location;lat;lon;timestamp;pressure;altitude;pressure_sealevel;temperature;humidity
30421;BME280;17218;54.070;10.012;2022-09-01T00:01:45;102274.78;;;13.08;100.00
30421;BME280;17218;54.070;10.012;2022-09-01T00:04:14;102282.56;;;13.03;100.00
30421;BME280;17218;54.070;10.012;2022-09-01T00:06:41;102275.59;;;12.99;100.00
30421;BME280;17218;54.070;10.012;2022-09-01T00:09:10;102276.44;;;12.93;100.00
30421;BME280;17218;54.070;10.012;2022-09-01T00:11:40;102273.81;;;12.90;100.00
30421;BME280;17218;54.070;10.012;2022-09-01T00:14:08;102274.63;;;12.84;100.00
30421;BME280;17218;54.070;10.012;2022-09-01T00:16:35;102271.97;;;12.78;100.00
30421;BME280;17218;54.070;10.012;2022-09-01T00:19:03;102276.34;;;12.79;100.00
30421;BME280;17218;54.070;10.012;2022-09-01T00:21:36;102276.28;;;12.76;100.00
30421;BME280;17218;54.070;10.012;2022-09-01T00:24:03;102274.56;;;12.75;100.00
30421;BME280;17218;54.070;10.012;2022-09-01T00:26:29;102265.84;;;12.71;100.00
30421;BME280;17218;54.070;10.012;2022-09-01T00:28:57;102265.84;;;12.70;100.00
30421;BME280;17218;54.070;10.012;2022-09-01T00:33:57;102274.47;;;12.66;100.00
30421;BME280;17218;54.070;10.012;2022-09-01T00:36:23;102267.56;;;12.64;100.00
30421;BME280;17218;54.070;10.012;2022-09-01T00:38:50;102272.69;;;12.60;100.00
30421;BME280;17218;54.070;10.012;2022-09-01T00:41:19;102277.84;;;12.54;100.00
30421;BME280;17218;54.070;10.012;2022-09-01T00:43:48;102276.06;;;12.48;100.00
30421;BME280;17218;54.070;10.012;2022-09-01T00:46:19;102278.66;;;12.46;100.00
30421;BME280;17218;54.070;10.012;2022-09-01T00:48:50;102277.75;;;12.43;100.00
30421;BME280;17218;54.070;10.012;2022-09-01T00:51:18;102279.38;;;12.34;100.00
30421;BME280;17218;54.070;10.012;2022-09-01T00:53:46;102275.00;;;12.28;100.00
30421;BME280;17218;54.070;10.012;2022-09-01T00:56:13;102272.38;;;12.25;100.00
30421;BME280;17218;54.070;10.012;2022-09-01T00:58:41;102278.41;;;12.23;100.00
30421;BME280;17218;54.070;10.012;2022-09-01T01:01:09;102271.47;;;12.22;100.00
30421;BME280;17218;54.070;10.012;2022-09-01T01:03:38;102278.38;;;12.21;100.00
30421;BME280;17218;54.070;10.012;2022-09-01T01:06:09;102271.47;;;12.19;100.00
30421;BME280;17218;54.070;10.012;2022-09-01T01:08:41;102273.19;;;12.18;100.00
30421;BME280;17218;54.070;10.012;2022-09-01T01:11:10;102268.81;;;12.17;100.00
30421;BME280;17218;54.070;10.012;2022-09-01T01:13:49;102277.47;;;12.13;100.00
30421;BME280;17218;54.070;10.012;2022-09-01T01:16:17;102273.09;;;12.12;100.00
30421;BME280;17218;54.070;10.012;2022-09-01T01:18:45;102272.13;;;12.03;100.00
30421;BME280;17218;54.070;10.012;2022-09-01T01:21:17;102273.81;;;12.00;100.00
30421;BME280;17218;54.070;10.012;2022-09-01T01:24:05;102270.31;;;11.98;100.00
30421;BME280;17218;54.070;10.012;2022-09-01T01:26:36;102271.13;;;11.92;100.00
30421;BME280;17218;54.070;10.012;2022-09-01T01:29:02;102268.50;;;11.90;100.00
30421;BME280;17218;54.070;10.012;2022-09-01T01:31:30;102265.03;;;11.91;100.00
30421;BME280;17218;54.070;10.012;2022-09-01T01:33:57;102260.72;;;11.90;100.00
30421;BME280;17218;54.070;10.012;2022-09-01T01:36:27;102261.63;;;11.92;100.00
30421;BME280;17218;54.070;10.012;2022-09-01T01:38:58;102260.75;;;11.95;100.00
30421;BME280;17218;54.070;10.012;2022-09-01T01:41:26;102269.44;;;11.97;100.00
30421;BME280;17218;54.070;10.012;2022-09-01T01:43:56;102270.31;;;11.96;100.00
30421;BME280;17218;54.070;10.012;2022-09-01T01:46:24;102272.03;;;11.96;100.00
30421;BME280;17218;54.070;10.012;2022-09-01T01:48:51;102262.47;;;11.93;100.00
30421;BME280;17218;54.070;10.012;2022-09-01T01:51:20;102265.91;;;11.90;100.00
30421;BME280;17218;54.070;10.012;2022-09-01T01:53:49;102262.41;;;11.85;100.00
30421;BME280;17218;54.070;10.012;2022-09-01T01:56:17;102260.59;;;11.79;100.00
30421;BME280;17218;54.070;10.012;2022-09-01T01:58:44;102275.25;;;11.76;100.00
30421;BME280;17218;54.070;10.012;2022-09-01T02:01:12;102268.22;;;11.67;100.00
30421;BME280;17218;54.070;10.012;2022-09-01T02:03:41;102269.84;;;11.57;100.00
30421;BME280;17218;54.070;10.012;2022-09-01T02:06:09;102270.66;;;11.54;100.00
30421;BME280;17218;54.070;10.012;2022-09-01T02:08:38;102273.19;;;11.48;100.00
30421;BME280;17218;54.070;10.012;2022-09-01T02:11:06;102271.41;;;11.45;100.00
30421;BME280;17218;54.070;10.012;2022-09-01T02:13:33;102279.97;;;11.40;100.00
30421;BME280;17218;54.070;10.012;2022-09-01T02:16:04;102272.16;;;11.37;100.00
30421;BME280;17218;54.070;10.012;2022-09-01T02:18:34;102278.16;;;11.34;100.00
30421;BME280;17218;54.070;10.012;2022-09-01T02:21:02;102281.53;;;11.28;100.00
30421;BME280;17218;54.070;10.012;2022-09-01T02:23:36;102278.13;;;11.31;100.00
30421;BME280;17218;54.070;10.012;2022-09-01T02:26:03;102265.97;;;11.28;100.00
30421;BME280;17218;54.070;10.012;2022-09-01T02:28:32;102266.84;;;11.27;100.00
30421;BME280;17218;54.070;10.012;2022-09-01T02:31:01;102268.53;;;11.27;100.00
30421;BME280;17218;54.070;10.012;2022-09-01T02:33:29;102269.41;;;11.26;100.00
30421;BME280;17218;54.070;10.012;2022-09-01T02:36:01;102268.50;;;11.22;100.00
30421;BME280;17218;54.070;10.012;2022-09-01T02:38:28;102266.69;;;11.18;100.00
30421;BME280;17218;54.070;10.012;2022-09-01T02:40:59;102261.47;;;11.15;100.00
30421;BME280;17218;54.070;10.012;2022-09-01T02:43:26;102265.75;;;11.11;100.00
30421;BME280;17218;54.070;10.012;2022-09-01T02:45:55;102251.03;;;11.12;100.00
30421;BME280;17218;54.070;10.012;2022-09-01T02:48:25;102259.66;;;11.09;100.00
30421;BME280;17218;54.070;10.012;2022-09-01T02:50:59;102262.28;;;11.12;100.00
30421;BME280;17218;54.070;10.012;2022-09-01T02:53:26;102261.38;;;11.10;100.00
30421;BME280;17218;54.070;10.012;2022-09-01T02:55:53;102259.69;;;11.12;100.00
30421;BME280;17218;54.070;10.012;2022-09-01T02:58:24;102265.69;;;11.09;100.00
30421;BME280;17218;54.070;10.012;2022-09-01T03:00:51;102259.66;;;11.09;100.00
30421;BME280;17218;54.070;10.012;2022-09-01T03:03:18;102249.19;;;11.04;100.00
30421;BME280;17218;54.070;10.012;2022-09-01T03:05:46;102254.38;;;11.04;100.00
30421;BME280;17218;54.070;10.012;2022-09-01T03:08:15;102250.97;;;11.05;100.00
30421;BME280;17218;54.070;10.012;2022-09-01T03:10:43;102252.66;;;11.03;100.00
30421;BME280;17218;54.070;10.012;2022-09-01T03:13:13;102258.66;;;11.01;100.00
30421;BME280;17218;54.070;10.012;2022-09-01T03:15:40;102255.13;;;10.97;100.00
30421;BME280;17218;54.070;10.012;2022-09-01T03:18:09;102258.59;;;10.94;100.00
30421;BME280;17218;54.070;10.012;2022-09-01T03:20:39;102249.91;;;10.94;100.00
30421;BME280;17218;54.070;10.012;2022-09-01T03:23:10;102268.09;;;10.95;100.00
30421;BME280;17218;54.070;10.012;2022-09-01T03:25:41;102255.09;;;10.94;100.00
30421;BME280;17218;54.070;10.012;2022-09-01T03:28:08;102262.88;;;10.94;100.00
30421;BME280;17218;54.070;10.012;2022-09-01T03:30:38;102259.34;;;10.89;100.00
30421;BME280;17218;54.070;10.012;2022-09-01T03:33:06;102260.13;;;10.84;100.00
30421;BME280;17218;54.070;10.012;2022-09-01T03:35:33;102254.91;;;10.80;100.00
30421;BME280;17218;54.070;10.012;2022-09-01T03:38:00;102254.00;;;10.78;100.00
30421;BME280;17218;54.070;10.012;2022-09-01T03:40:29;102248.75;;;10.74;100.00
30421;BME280;17218;54.070;10.012;2022-09-01T03:42:58;102262.56;;;10.73;100.00
30421;BME280;17218;54.070;10.012;2022-09-01T03:45:25;102260.84;;;10.74;100.00
30421;BME280;17218;54.070;10.012;2022-09-01T03:47:52;102263.47;;;10.76;100.00
30421;BME280;17218;54.070;10.012;2022-09-01T03:50:21;102264.25;;;10.71;100.00
30421;BME280;17218;54.070;10.012;2022-09-01T03:52:49;102263.38;;;10.71;100.00
30421;BME280;17218;54.070;10.012;2022-09-01T03:55:18;102261.66;;;10.71;100.00
30421;BME280;17218;54.070;10.012;2022-09-01T03:57:48;102269.47;;;10.73;100.00
30421;BME280;17218;54.070;10.012;2022-09-01T04:00:16;102266.84;;;10.71;100.00
30421;BME280;17218;54.070;10.012;2022-09-01T04:02:46;102266.84;;;10.71;100.00
30421;BME280;17218;54.070;10.012;2022-09-01T04:05:15;102271.16;;;10.71;100.00
30421;BME280;17218;54.070;10.012;2022-09-01T04:07:42;102266.81;;;10.68;100.00
30421;BME280;17218;54.070;10.012;2022-09-01T04:10:11;102272.03;;;10.71;100.00
30421;BME280;17218;54.070;10.012;2022-09-01T04:12:38;102261.53;;;10.64;100.00
30421;BME280;17218;54.070;10.012;2022-09-01T04:15:05;102265.72;;;10.55;100.00
30421;BME280;17218;54.070;10.012;2022-09-01T04:17:34;102271.78;;;10.56;100.00
30421;BME280;17218;54.070;10.012;2022-09-01T04:20:18;102276.97;;;10.56;100.00
30421;BME280;17218;54.070;10.012;2022-09-01T04:22:46;102264.84;;;10.56;100.00
30421;BME280;17218;54.070;10.012;2022-09-01T04:25:14;102273.47;;;10.54;100.00
30421;BME280;17218;54.070;10.012;2022-09-01T04:27:41;102263.09;;;10.54;100.00
30421;BME280;17218;54.070;10.012;2022-09-01T04:30:10;102269.09;;;10.51;100.00
30421;BME280;17218;54.070;10.012;2022-09-01T04:32:38;102260.41;;;10.49;100.00
30421;BME280;17218;54.070;10.012;2022-09-01T04:35:07;102266.47;;;10.49;100.00
30421;BME280;17218;54.070;10.012;2022-09-01T04:37:35;102273.31;;;10.47;100.00
30421;BME280;17218;54.070;10.012;2022-09-01T04:40:03;102267.25;;;10.47;100.00
30421;BME280;17218;54.070;10.012;2022-09-01T04:42:30;102275.13;;;10.48;100.00
30421;BME280;17218;54.070;10.012;2022-09-01T04:44:57;102270.81;;;10.50;100.00
30421;BME280;17218;54.070;10.012;2022-09-01T04:47:25;102275.97;;;10.49;100.00
30421;BME280;17218;54.070;10.012;2022-09-01T04:49:56;102272.56;;;10.52;100.00
30421;BME280;17218;54.070;10.012;2022-09-01T04:52:28;102271.72;;;10.53;100.00
30421;BME280;17218;54.070;10.012;2022-09-01T04:54:56;102275.25;;;10.58;100.00
30421;BME280;17218;54.070;10.012;2022-09-01T04:57:22;102284.84;;;10.64;100.00
30421;BME280;17218;54.070;10.012;2022-09-01T04:59:55;102279.78;;;10.70;100.00
30421;BME280;17218;54.070;10.012;2022-09-01T05:02:22;102276.41;;;10.74;100.00
30421;BME280;17218;54.070;10.012;2022-09-01T05:04:52;102273.88;;;10.79;100.00
30421;BME280;17218;54.070;10.012;2022-09-01T05:07:24;102279.06;;;10.80;100.00
30421;BME280;17218;54.070;10.012;2022-09-01T05:09:51;102278.22;;;10.80;100.00
30421;BME280;17218;54.070;10.012;2022-09-01T05:12:18;102280.81;;;10.80;100.00
30421;BME280;17218;54.070;10.012;2022-09-01T05:14:46;102275.53;;;10.75;100.00
30421;BME280;17218;54.070;10.012;2022-09-01T05:17:13;102272.91;;;10.72;100.00
30421;BME280;17218;54.070;10.012;2022-09-01T05:19:43;102274.84;;;10.85;100.00
30421;BME280;17218;54.070;10.012;2022-09-01T05:22:12;102275.06;;;10.98;100.00
30421;BME280;17218;54.070;10.012;2022-09-01T05:24:41;102277.78;;;11.07;100.00
30421;BME280;17218;54.070;10.012;2022-09-01T05:27:08;102263.19;;;11.14;100.00
30421;BME280;17218;54.070;10.012;2022-09-01T05:29:37;102280.53;;;11.18;100.00
30421;BME280;17218;54.070;10.012;2022-09-01T05:32:05;102280.63;;;11.25;100.00
30421;BME280;17218;54.070;10.012;2022-09-01T05:34:35;102285.03;;;11.32;100.00
30421;BME280;17218;54.070;10.012;2022-09-01T05:37:03;102283.34;;;11.32;100.00
30421;BME280;17218;54.070;10.012;2022-09-01T05:39:31;102282.56;;;11.38;100.00
30421;BME280;17218;54.070;10.012;2022-09-01T05:42:01;102284.41;;;11.47;100.00
30421;BME280;17218;54.070;10.012;2022-09-01T05:44:28;102286.97;;;11.45;100.00
30421;BME280;17218;54.070;10.012;2022-09-01T05:46:57;102283.69;;;11.57;100.00
30421;BME280;17218;54.070;10.012;2022-09-01T05:49:24;102283.00;;;11.73;100.00
30421;BME280;17218;54.070;10.012;2022-09-01T05:51:51;102290.91;;;11.82;100.00
30421;BME280;17218;54.070;10.012;2022-09-01T05:54:24;102284.03;;;11.87;100.00
30421;BME280;17218;54.070;10.012;2022-09-01T05:56:51;102292.69;;;11.85;100.00
30421;BME280;17218;54.070;10.012;2022-09-01T05:59:20;102291.09;;;11.96;100.00
30421;BME280;17218;54.070;10.012;2022-09-01T06:01:48;102289.56;;;12.14;100.00
30421;BME280;17218;54.070;10.012;2022-09-01T06:04:15;102294.03;;;12.26;100.00
30421;BME280;17218;54.070;10.012;2022-09-01T06:06:44;102291.50;;;12.35;100.00
30421;BME280;17218;54.070;10.012;2022-09-01T06:09:12;102293.38;;;12.46;100.00
30421;BME280;17218;54.070;10.012;2022-09-01T06:11:42;102290.00;;;12.56;100.00
30421;BME280;17218;54.070;10.012;2022-09-01T06:14:11;102290.09;;;12.69;100.00
30421;BME280;17218;54.070;10.012;2022-09-01T06:16:39;102287.53;;;12.70;100.00
30421;BME280;17218;54.070;10.012;2022-09-01T06:19:07;102287.63;;;12.83;100.00
30421;BME280;17218;54.070;10.012;2022-09-01T06:21:34;102298.13;;;12.97;100.00
30421;BME280;17218;54.070;10.012;2022-09-01T06:24:01;102292.97;;;13.03;100.00
30421;BME280;17218;54.070;10.012;2022-09-01T06:26:31;102299.97;;;13.14;100.00
30421;BME280;17218;54.070;10.012;2022-09-01T06:29:01;102286.16;;;13.22;100.00
30421;BME280;17218;54.070;10.012;2022-09-01T06:31:31;102287.09;;;13.37;100.00
30421;BME280;17218;54.070;10.012;2022-09-01T06:34:01;102299.34;;;13.52;100.00
30421;BME280;17218;54.070;10.012;2022-09-01T06:36:30;102300.31;;;13.62;100.00
30421;BME280;17218;54.070;10.012;2022-09-01T06:38:58;102301.19;;;13.70;100.00
30421;BME280;17218;54.070;10.012;2022-09-01T06:41:26;102303.84;;;13.78;100.00
30421;BME280;17218;54.070;10.012;2022-09-01T06:43:53;102298.69;;;13.88;100.00
30421;BME280;17218;54.070;10.012;2022-09-01T06:46:21;102309.16;;;14.08;100.00
30421;BME280;17218;54.070;10.012;2022-09-01T06:48:48;102305.75;;;14.26;100.00
30421;BME280;17218;54.070;10.012;2022-09-01T06:51:19;102309.25;;;14.41;100.00
30421;BME280;17218;54.070;10.012;2022-09-01T06:53:47;102308.41;;;14.54;100.00
30421;BME280;17218;54.070;10.012;2022-09-01T06:56:16;102313.63;;;14.69;100.00
30421;BME280;17218;54.070;10.012;2022-09-01T06:58:44;102302.34;;;14.85;100.00
30421;BME280;17218;54.070;10.012;2022-09-01T07:01:15;102313.66;;;14.98;100.00
30421;BME280;17218;54.070;10.012;2022-09-01T07:03:45;102300.59;;;15.12;100.00
30421;BME280;17218;54.070;10.012;2022-09-01T07:06:13;102288.41;;;15.25;100.00
30421;BME280;17218;54.070;10.012;2022-09-01T07:08:41;102296.22;;;15.21;100.00
30421;BME280;17218;54.070;10.012;2022-09-01T07:11:16;102294.47;;;15.34;100.00
30421;BME280;17218;54.070;10.012;2022-09-01T07:13:53;102296.13;;;15.54;100.00
30421;BME280;17218;54.070;10.012;2022-09-01T07:16:21;102292.63;;;15.66;100.00
30421;BME280;17218;54.070;10.012;2022-09-01T07:18:49;102304.75;;;15.78;100.00
30421;BME280;17218;54.070;10.012;2022-09-01T07:21:16;102306.47;;;15.90;100.00
30421;BME280;17218;54.070;10.012;2022-09-01T07:23:45;102301.22;;;16.01;100.00
30421;BME280;17218;54.070;10.012;2022-09-01T07:26:12;102302.00;;;16.14;100.00
30421;BME280;17218;54.070;10.012;2022-09-01T07:28:44;102290.63;;;16.23;100.00
30421;BME280;17218;54.070;10.012;2022-09-01T07:31:17;102296.66;;;16.34;100.00
30421;BME280;17218;54.070;10.012;2022-09-01T07:33:45;102287.88;;;16.43;100.00
30421;BME280;17218;54.070;10.012;2022-09-01T07:36:13;102278.22;;;16.53;100.00
30421;BME280;17218;54.070;10.012;2022-09-01T07:38:40;102285.97;;;16.61;100.00
30421;BME280;17218;54.070;10.012;2022-09-01T07:41:09;102288.53;;;16.68;100.00
30421;BME280;17218;54.070;10.012;2022-09-01T07:43:38;102290.22;;;16.80;100.00
30421;BME280;17218;54.070;10.012;2022-09-01T07:46:06;102290.13;;;16.90;100.00
30421;BME280;17218;54.070;10.012;2022-09-01T07:48:33;102290.94;;;16.97;100.00
30421;BME280;17218;54.070;10.012;2022-09-01T07:50:59;102285.59;;;17.06;100.00
30421;BME280;17218;54.070;10.012;2022-09-01T07:53:27;102295.13;;;17.16;100.00
30421;BME280;17218;54.070;10.012;2022-09-01T07:55:56;102294.09;;;17.32;100.00
30421;BME280;17218;54.070;10.012;2022-09-01T07:58:26;102294.84;;;17.43;100.00
30421;BME280;17218;54.070;10.012;2022-09-01T08:00:53;102294.69;;;17.56;100.00
30421;BME280;17218;54.070;10.012;2022-09-01T08:03:22;102288.44;;;17.66;100.00
30421;BME280;17218;54.070;10.012;2022-09-01T08:05:50;102290.91;;;17.80;100.00
30421;BME280;17218;54.070;10.012;2022-09-01T08:08:22;102287.25;;;17.92;100.00
30421;BME280;17218;54.070;10.012;2022-09-01T08:10:49;102294.97;;;18.02;100.00
30421;BME280;17218;54.070;10.012;2022-09-01T08:13:16;102299.22;;;18.12;100.00
30421;BME280;17218;54.070;10.012;2022-09-01T08:15:44;102299.19;;;18.14;100.00
30421;BME280;17218;54.070;10.012;2022-09-01T08:18:12;102308.75;;;18.21;100.00
30421;BME280;17218;54.070;10.012;2022-09-01T08:20:39;102301.59;;;18.31;100.00
30421;BME280;17218;54.070;10.012;2022-09-01T08:23:10;102313.59;;;18.46;100.00
30421;BME280;17218;54.070;10.012;2022-09-01T08:25:37;102300.28;;;18.58;100.00
30421;BME280;17218;54.070;10.012;2022-09-01T08:28:05;102296.59;;;18.70;100.00
30421;BME280;17218;54.070;10.012;2022-09-01T08:30:32;102303.38;;;18.84;100.00
30421;BME280;17218;54.070;10.012;2022-09-01T08:33:00;102292.50;;;19.06;100.00
30421;BME280;17218;54.070;10.012;2022-09-01T08:35:27;102289.38;;;19.33;100.00
30421;BME280;17218;54.070;10.012;2022-09-01T08:37:54;102295.00;;;19.60;100.00
30421;BME280;17218;54.070;10.012;2022-09-01T08:40:22;102297.28;;;19.75;100.00
30421;BME280;17218;54.070;10.012;2022-09-01T08:42:54;102291.88;;;19.83;100.00
30421;BME280;17218;54.070;10.012;2022-09-01T08:45:29;102289.75;;;19.99;100.00
30421;BME280;17218;54.070;10.012;2022-09-01T08:48:05;102282.44;;;20.14;100.00
30421;BME280;17218;54.070;10.012;2022-09-01T08:50:36;102280.38;;;20.27;100.00
30421;BME280;17218;54.070;10.012;2022-09-01T08:53:08;102282.41;;;20.17;100.00
30421;BME280;17218;54.070;10.012;2022-09-01T08:55:41;102288.53;;;20.16;100.00
30421;BME280;17218;54.070;10.012;2022-09-01T08:58:09;102286.38;;;20.34;100.00
30421;BME280;17218;54.070;10.012;2022-09-01T09:00:41;102279.25;;;20.39;100.00
30421;BME280;17218;54.070;10.012;2022-09-01T09:03:18;102278.34;;;20.75;100.00
30421;BME280;17218;54.070;10.012;2022-09-01T09:06:02;102280.81;;;20.81;100.00
30421;BME280;17218;54.070;10.012;2022-09-01T09:08:56;102269.91;;;20.97;100.00
30421;BME280;17218;54.070;10.012;2022-09-01T09:11:39;102270.41;;;21.42;100.00
30421;BME280;17218;54.070;10.012;2022-09-01T09:14:10;102270.53;;;21.69;92.59
30421;BME280;17218;54.070;10.012;2022-09-01T09:16:45;102269.94;;;21.89;89.23
30421;BME280;17218;54.070;10.012;2022-09-01T09:19:18;102270.31;;;22.06;88.19
30421;BME280;17218;54.070;10.012;2022-09-01T09:21:49;102271.63;;;22.19;89.32
30421;BME280;17218;54.070;10.012;2022-09-01T09:24:27;102265.09;;;22.31;86.48
30421;BME280;17218;54.070;10.012;2022-09-01T09:27:15;102268.38;;;22.38;85.98
30421;BME280;17218;54.070;10.012;2022-09-01T09:29:42;102263.56;;;22.24;77.74
30421;BME280;17218;54.070;10.012;2022-09-01T09:32:10;102257.38;;;22.25;77.27
30421;BME280;17218;54.070;10.012;2022-09-01T09:34:40;102261.06;;;21.92;72.25
30421;BME280;17218;54.070;10.012;2022-09-01T09:37:22;102258.28;;;21.66;57.93
30421;BME280;17218;54.070;10.012;2022-09-01T09:40:08;102257.81;;;21.84;63.18
30421;BME280;17218;54.070;10.012;2022-09-01T09:42:35;102252.84;;;22.01;65.45
30421;BME280;17218;54.070;10.012;2022-09-01T09:45:05;102247.94;;;22.45;61.81
30421;BME280;17218;54.070;10.012;2022-09-01T09:47:38;102249.38;;;22.81;57.81
30421;BME280;17218;54.070;10.012;2022-09-01T09:50:14;102248.25;;;22.88;57.82
30421;BME280;17218;54.070;10.012;2022-09-01T09:52:42;102251.91;;;23.09;61.20
30421;BME280;17218;54.070;10.012;2022-09-01T09:55:20;102242.50;;;23.26;59.19
30421;BME280;17218;54.070;10.012;2022-09-01T09:57:48;102231.97;;;23.49;61.27
30421;BME280;17218;54.070;10.012;2022-09-01T10:00:19;102235.31;;;23.54;64.15
30421;BME280;17218;54.070;10.012;2022-09-01T10:02:51;102229.03;;;23.56;69.27
30421;BME280;17218;54.070;10.012;2022-09-01T10:08:08;102223.94;;;23.52;62.66
30421;BME280;17218;54.070;10.012;2022-09-01T10:10:38;102228.34;;;23.51;59.35
30421;BME280;17218;54.070;10.012;2022-09-01T10:13:09;102231.59;;;23.58;58.22
30421;BME280;17218;54.070;10.012;2022-09-01T10:15:36;102228.19;;;23.56;54.06
30421;BME280;17218;54.070;10.012;2022-09-01T10:18:06;102234.88;;;23.41;55.05
30421;BME280;17218;54.070;10.012;2022-09-01T10:20:40;102234.38;;;23.31;58.17
30421;BME280;17218;54.070;10.012;2022-09-01T10:23:12;102231.66;;;23.32;59.57
30421;BME280;17218;54.070;10.012;2022-09-01T10:25:39;102227.53;;;23.25;58.76
30421;BME280;17218;54.070;10.012;2022-09-01T10:28:09;102225.75;;;23.02;58.09
30421;BME280;17218;54.070;10.012;2022-09-01T10:30:40;102231.38;;;22.92;58.09
30421;BME280;17218;54.070;10.012;2022-09-01T10:33:08;102217.81;;;22.78;59.40
30421;BME280;17218;54.070;10.012;2022-09-01T10:35:37;102230.25;;;22.74;61.65
30421;BME280;17218;54.070;10.012;2022-09-01T10:38:08;102224.16;;;22.72;62.44
30421;BME280;17218;54.070;10.012;2022-09-01T10:40:38;102229.63;;;22.67;63.84
30421;BME280;17218;54.070;10.012;2022-09-01T10:43:24;102224.97;;;22.74;63.96
30421;BME280;17218;54.070;10.012;2022-09-01T10:45:53;102222.41;;;22.72;65.34
30421;BME280;17218;54.070;10.012;2022-09-01T10:48:27;102223.91;;;22.80;63.67
30421;BME280;17218;54.070;10.012;2022-09-01T10:51:39;102224.78;;;22.79;62.05
30421;BME280;17218;54.070;10.012;2022-09-01T10:54:08;102224.03;;;22.75;62.51
30421;BME280;17218;54.070;10.012;2022-09-01T10:56:56;102236.50;;;22.71;62.68
30421;BME280;17218;54.070;10.012;2022-09-01T10:59:26;102226.19;;;22.63;64.94
30421;BME280;17218;54.070;10.012;2022-09-01T11:02:14;102213.47;;;22.75;66.27
30421;BME280;17218;54.070;10.012;2022-09-01T11:05:11;102221.75;;;22.91;66.54
30421;BME280;17218;54.070;10.012;2022-09-01T11:07:38;102219.09;;;23.15;69.15
30421;BME280;17218;54.070;10.012;2022-09-01T11:10:33;102211.81;;;23.46;64.07
30421;BME280;17218;54.070;10.012;2022-09-01T11:13:29;102215.06;;;24.20;62.43
30421;BME280;17218;54.070;10.012;2022-09-01T11:16:30;102207.16;;;25.21;51.63
30421;BME280;17218;54.070;10.012;2022-09-01T11:19:17;102209.41;;;26.05;50.81
30421;BME280;17218;54.070;10.012;2022-09-01T11:24:52;102211.38;;;26.54;44.48
30421;BME280;17218;54.070;10.012;2022-09-01T11:28:05;102204.75;;;26.46;45.53
30421;BME280;17218;54.070;10.012;2022-09-01T11:30:39;102201.91;;;26.49;44.50
30421;BME280;17218;54.070;10.012;2022-09-01T11:36:13;102197.78;;;26.77;42.21
30421;BME280;17218;54.070;10.012;2022-09-01T11:38:46;102203.81;;;26.97;42.56
30421;BME280;17218;54.070;10.012;2022-09-01T11:41:21;102196.06;;;27.58;39.87
30421;BME280;17218;54.070;10.012;2022-09-01T11:43:52;102187.19;;;28.79;38.10
30421;BME280;17218;54.070;10.012;2022-09-01T11:46:24;102185.28;;;29.53;37.69
30421;BME280;17218;54.070;10.012;2022-09-01T11:48:53;102179.22;;;30.57;35.52
30421;BME280;17218;54.070;10.012;2022-09-01T11:51:20;102181.44;;;30.76;34.10
30421;BME280;17218;54.070;10.012;2022-09-01T11:53:46;102183.47;;;30.99;33.69
30421;BME280;17218;54.070;10.012;2022-09-01T11:56:16;102176.25;;;31.12;32.60
30421;BME280;17218;54.070;10.012;2022-09-01T11:58:44;102179.94;;;31.72;31.95
30421;BME280;17218;54.070;10.012;2022-09-01T12:01:15;102172.75;;;33.99;29.00
30421;BME280;17218;54.070;10.012;2022-09-01T12:03:42;102166.66;;;35.20;26.99
30421;BME280;17218;54.070;10.012;2022-09-01T12:06:11;102172.00;;;35.10;27.93
30421;BME280;17218;54.070;10.012;2022-09-01T12:08:40;102171.59;;;34.64;27.46
30421;BME280;17218;54.070;10.012;2022-09-01T12:11:09;102170.38;;;34.06;28.00
30421;BME280;17218;54.070;10.012;2022-09-01T12:13:37;102160.94;;;34.94;26.59
30421;BME280;17218;54.070;10.012;2022-09-01T12:16:06;102163.84;;;36.58;25.50
30421;BME280;17218;54.070;10.012;2022-09-01T12:18:36;102156.31;;;38.84;22.94
30421;BME280;17218;54.070;10.012;2022-09-01T12:21:06;102153.44;;;40.26;21.24
30421;BME280;17218;54.070;10.012;2022-09-01T12:23:35;102150.47;;;42.07;20.44
30421;BME280;17218;54.070;10.012;2022-09-01T12:26:04;102157.47;;;43.13;18.45
30421;BME280;17218;54.070;10.012;2022-09-01T12:28:32;102149.16;;;44.21;19.06
30421;BME280;17218;54.070;10.012;2022-09-01T12:31:02;102145.91;;;44.53;17.64
30421;BME280;17218;54.070;10.012;2022-09-01T12:33:30;102150.88;;;43.86;17.14
30421;BME280;17218;54.070;10.012;2022-09-01T12:36:20;102145.09;;;41.38;19.21
30421;BME280;17218;54.070;10.012;2022-09-01T12:38:47;102149.97;;;42.71;18.26
30421;BME280;17218;54.070;10.012;2022-09-01T12:41:32;102140.97;;;44.28;17.73
30421;BME280;17218;54.070;10.012;2022-09-01T12:44:29;102140.66;;;42.81;17.26
30421;BME280;17218;54.070;10.012;2022-09-01T12:46:57;102134.44;;;43.73;17.15
30421;BME280;17218;54.070;10.012;2022-09-01T12:49:25;102120.78;;;43.66;17.27
30421;BME280;17218;54.070;10.012;2022-09-01T12:52:11;102126.50;;;44.27;16.75
30421;BME280;17218;54.070;10.012;2022-09-01T12:54:39;102125.75;;;44.61;16.19
30421;BME280;17218;54.070;10.012;2022-09-01T12:57:05;102120.72;;;44.98;15.58
30421;BME280;17218;54.070;10.012;2022-09-01T12:59:32;102118.78;;;45.53;16.35
30421;BME280;17218;54.070;10.012;2022-09-01T13:02:26;102122.66;;;46.63;15.21